sensor_id;sensor_type;location;lat;lon;timestamp;pressure;altitude;pressure_sealevel;temperature;humidity
13705;BME280;6924;52.122;9.952;2022-07-29T00:02:18;100799.59;;;17.32;57.65
13705;BME280;6924;52.122;9.952;2022-07-29T00:04:44;100798.78;;;17.32;56.69
13705;BME280;6924;52.122;9.952;2022-07-29T00:07:12;100798.44;;;17.33;56.22
13705;BME280;6924;52.122;9.952;2022-07-29T00:09:39;100791.75;;;17.29;56.26
13705;BME280;6924;52.122;9.952;2022-07-29T00:12:05;100803.66;;;17.31;56.63
13705;BME280;6924;52.122;9.952;2022-07-29T00:14:32;100790.44;;;17.27;56.82
13705;BME280;6924;52.122;9.952;2022-07-29T00:16:58;100794.38;;;17.22;57.22
13705;BME280;6924;52.122;9.952;2022-07-29T00:19:25;100789.47;;;17.23;57.07
13705;BME280;6924;52.122;9.952;2022-07-29T00:21:51;100791.13;;;17.24;57.60
13705;BME280;6924;52.122;9.952;2022-07-29T00:24:19;100785.31;;;17.20;57.73
13705;BME280;6924;52.122;9.952;2022-07-29T00:26:45;100775.06;;;17.19;57.29
13705;BME280;6924;52.122;9.952;2022-07-29T00:29:12;100774.69;;;17.21;58.16
13705;BME280;6924;52.122;9.952;2022-07-29T00:31:38;100769.34;;;17.19;57.24
13705;BME280;6924;52.122;9.952;2022-07-29T00:34:04;100768.84;;;17.17;56.65
13705;BME280;6924;52.122;9.952;2022-07-29T00:36:51;100762.31;;;17.17;56.69
13705;BME280;6924;52.122;9.952;2022-07-29T00:39:16;100761.47;;;17.16;56.85
13705;BME280;6924;52.122;9.952;2022-07-29T00:41:44;100759.78;;;17.15;57.26
13705;BME280;6924;52.122;9.952;2022-07-29T00:44:11;100761.47;;;17.16;57.31
13705;BME280;6924;52.122;9.952;2022-07-29T00:46:37;100762.66;;;17.15;57.29
13705;BME280;6924;52.122;9.952;2022-07-29T00:49:03;100755.28;;;17.14;56.38
13705;BME280;6924;52.122;9.952;2022-07-29T00:51:32;100754.81;;;17.12;55.05
13705;BME280;6924;52.122;9.952;2022-07-29T00:54:00;100753.16;;;17.11;55.61
13705;BME280;6924;52.122;9.952;2022-07-29T00:56:29;100752.28;;;17.10;56.17
13705;BME280;6924;52.122;9.952;2022-07-29T00:58:58;100751.47;;;17.10;56.25
13705;BME280;6924;52.122;9.952;2022-07-29T01:01:24;100748.59;;;17.10;55.37
13705;BME280;6924;52.122;9.952;2022-07-29T01:03:51;100738.00;;;17.10;55.38
13705;BME280;6924;52.122;9.952;2022-07-29T01:06:18;100737.19;;;17.10;56.31
13705;BME280;6924;52.122;9.952;2022-07-29T01:08:47;100735.53;;;17.09;57.01
13705;BME280;6924;52.122;9.952;2022-07-29T01:11:15;100730.97;;;17.08;56.34
13705;BME280;6924;52.122;9.952;2022-07-29T01:13:42;100730.16;;;17.07;55.99
13705;BME280;6924;52.122;9.952;2022-07-29T01:16:14;100718.72;;;17.07;56.61
13705;BME280;6924;52.122;9.952;2022-07-29T01:18:46;100723.97;;;17.05;57.06
13705;BME280;6924;52.122;9.952;2022-07-29T01:21:24;100725.16;;;17.04;57.46
13705;BME280;6924;52.122;9.952;2022-07-29T01:24:10;100719.31;;;17.01;57.48
13705;BME280;6924;52.122;9.952;2022-07-29T01:26:42;100722.16;;;17.01;57.52
13705;BME280;6924;52.122;9.952;2022-07-29T01:29:18;100717.63;;;17.00;57.37
13705;BME280;6924;52.122;9.952;2022-07-29T01:31:51;100714.66;;;16.96;58.26
13705;BME280;6924;52.122;9.952;2022-07-29T01:34:22;100713.34;;;16.93;57.98
13705;BME280;6924;52.122;9.952;2022-07-29T01:36:55;100712.38;;;16.89;57.80
13705;BME280;6924;52.122;9.952;2022-07-29T01:39:26;100710.00;;;16.91;58.69
13705;BME280;6924;52.122;9.952;2022-07-29T01:41:58;100707.84;;;16.88;58.81
13705;BME280;6924;52.122;9.952;2022-07-29T01:44:33;100706.53;;;16.86;58.03
13705;BME280;6924;52.122;9.952;2022-07-29T01:47:05;100710.94;;;16.83;58.53
13705;BME280;6924;52.122;9.952;2022-07-29T01:49:36;100709.63;;;16.81;58.44
13705;BME280;6924;52.122;9.952;2022-07-29T01:52:06;100704.75;;;16.81;58.79
13705;BME280;6924;52.122;9.952;2022-07-29T01:54:37;100702.56;;;16.78;58.74
13705;BME280;6924;52.122;9.952;2022-07-29T01:57:09;100697.06;;;16.73;58.80
13705;BME280;6924;52.122;9.952;2022-07-29T01:59:40;100694.44;;;16.68;58.00
13705;BME280;6924;52.122;9.952;2022-07-29T02:02:08;100695.16;;;16.65;58.04
13705;BME280;6924;52.122;9.952;2022-07-29T02:04:37;100706.09;;;16.63;58.48
13705;BME280;6924;52.122;9.952;2022-07-29T02:07:07;100701.56;;;16.62;59.19
13705;BME280;6924;52.122;9.952;2022-07-29T02:09:36;100698.94;;;16.57;59.15
13705;BME280;6924;52.122;9.952;2022-07-29T02:12:06;100693.94;;;16.53;59.23
13705;BME280;6924;52.122;9.952;2022-07-29T02:14:37;100684.03;;;16.51;59.91
13705;BME280;6924;52.122;9.952;2022-07-29T02:17:05;100681.09;;;16.47;60.01
13705;BME280;6924;52.122;9.952;2022-07-29T02:19:33;100688.81;;;16.47;59.90
13705;BME280;6924;52.122;9.952;2022-07-29T02:22:00;100692.84;;;16.46;60.63
13705;BME280;6924;52.122;9.952;2022-07-29T02:24:28;100685.09;;;16.46;60.53
13705;BME280;6924;52.122;9.952;2022-07-29T02:26:58;100686.31;;;16.45;60.60
13705;BME280;6924;52.122;9.952;2022-07-29T02:29:27;100681.41;;;16.46;60.98
13705;BME280;6924;52.122;9.952;2022-07-29T02:31:56;100685.97;;;16.47;61.14
13705;BME280;6924;52.122;9.952;2022-07-29T02:34:25;100681.41;;;16.46;60.91
13705;BME280;6924;52.122;9.952;2022-07-29T02:36:52;100681.41;;;16.46;60.67
13705;BME280;6924;52.122;9.952;2022-07-29T02:39:21;100682.97;;;16.43;59.92
13705;BME280;6924;52.122;9.952;2022-07-29T02:41:50;100682.47;;;16.41;59.55
13705;BME280;6924;52.122;9.952;2022-07-29T02:44:19;100687.00;;;16.42;59.76
13705;BME280;6924;52.122;9.952;2022-07-29T02:46:49;100686.16;;;16.42;59.74
13705;BME280;6924;52.122;9.952;2022-07-29T02:49:22;100679.63;;;16.41;60.35
13705;BME280;6924;52.122;9.952;2022-07-29T02:51:57;100673.44;;;16.39;61.14
13705;BME280;6924;52.122;9.952;2022-07-29T02:54:31;100675.81;;;16.37;60.42
13705;BME280;6924;52.122;9.952;2022-07-29T02:57:00;100673.44;;;16.39;60.54
13705;BME280;6924;52.122;9.952;2022-07-29T02:59:27;100667.25;;;16.37;60.04
13705;BME280;6924;52.122;9.952;2022-07-29T03:01:58;100669.28;;;16.37;59.74
13705;BME280;6924;52.122;9.952;2022-07-29T03:04:27;100667.97;;;16.34;59.97
13705;BME280;6924;52.122;9.952;2022-07-29T03:06:58;100665.59;;;16.36;60.87
13705;BME280;6924;52.122;9.952;2022-07-29T03:09:26;100662.25;;;16.34;60.46
13705;BME280;6924;52.122;9.952;2022-07-29T03:11:54;100671.16;;;16.32;60.40
13705;BME280;6924;52.122;9.952;2022-07-29T03:14:22;100664.13;;;16.30;60.44
13705;BME280;6924;52.122;9.952;2022-07-29T03:16:50;100659.59;;;16.29;60.18
13705;BME280;6924;52.122;9.952;2022-07-29T03:19:17;100664.47;;;16.28;60.53
13705;BME280;6924;52.122;9.952;2022-07-29T03:21:45;100664.81;;;16.27;60.87
13705;BME280;6924;52.122;9.952;2022-07-29T03:24:25;100654.59;;;16.26;61.57
13705;BME280;6924;52.122;9.952;2022-07-29T03:26:52;100659.97;;;16.27;61.71
13705;BME280;6924;52.122;9.952;2022-07-29T03:29:18;100659.47;;;16.25;61.60
13705;BME280;6924;52.122;9.952;2022-07-29T03:31:45;100659.47;;;16.25;61.60
13705;BME280;6924;52.122;9.952;2022-07-29T03:34:12;100656.25;;;16.27;61.72
13705;BME280;6924;52.122;9.952;2022-07-29T03:36:38;100656.25;;;16.27;61.20
13705;BME280;6924;52.122;9.952;2022-07-29T03:39:05;100659.97;;;16.27;60.80
13705;BME280;6924;52.122;9.952;2022-07-29T03:41:35;100651.75;;;16.26;61.11
13705;BME280;6924;52.122;9.952;2022-07-29T03:44:03;100655.31;;;16.23;61.03
13705;BME280;6924;52.122;9.952;2022-07-29T03:46:31;100651.13;;;16.20;61.45
13705;BME280;6924;52.122;9.952;2022-07-29T03:49:03;100656.00;;;16.20;61.70
13705;BME280;6924;52.122;9.952;2022-07-29T03:51:30;100656.72;;;16.17;62.42
13705;BME280;6924;52.122;9.952;2022-07-29T03:53:57;100655.50;;;16.18;62.20
13705;BME280;6924;52.122;9.952;2022-07-29T03:56:24;100649.81;;;16.18;62.82
13705;BME280;6924;52.122;9.952;2022-07-29T03:58:52;100652.66;;;16.18;63.11
13705;BME280;6924;52.122;9.952;2022-07-29T04:01:20;100658.84;;;16.20;63.35
13705;BME280;6924;52.122;9.952;2022-07-29T04:03:47;100654.34;;;16.19;62.59
13705;BME280;6924;52.122;9.952;2022-07-29T04:06:14;100650.78;;;16.22;63.25
13705;BME280;6924;52.122;9.952;2022-07-29T04:08:40;100652.66;;;16.18;62.73
13705;BME280;6924;52.122;9.952;2022-07-29T04:11:06;100638.63;;;16.13;62.01
13705;BME280;6924;52.122;9.952;2022-07-29T04:13:33;100650.19;;;16.16;62.20
13705;BME280;6924;52.122;9.952;2022-07-29T04:16:01;100652.53;;;16.14;61.89
13705;BME280;6924;52.122;9.952;2022-07-29T04:18:27;100653.38;;;16.15;62.76
13705;BME280;6924;52.122;9.952;2022-07-29T04:20:54;100655.41;;;16.14;62.90
13705;BME280;6924;52.122;9.952;2022-07-29T04:23:20;100652.88;;;16.13;62.91
13705;BME280;6924;52.122;9.952;2022-07-29T04:25:46;100656.44;;;16.09;62.65
13705;BME280;6924;52.122;9.952;2022-07-29T04:28:13;100659.31;;;16.09;62.55
13705;BME280;6924;52.122;9.952;2022-07-29T04:30:39;100659.75;;;16.11;62.63
13705;BME280;6924;52.122;9.952;2022-07-29T04:33:07;100655.25;;;16.10;62.27
13705;BME280;6924;52.122;9.952;2022-07-29T04:35:35;100658.44;;;16.09;62.34
13705;BME280;6924;52.122;9.952;2022-07-29T04:38:02;100651.56;;;16.10;62.17
13705;BME280;6924;52.122;9.952;2022-07-29T04:40:29;100653.22;;;16.11;62.08
13705;BME280;6924;52.122;9.952;2022-07-29T04:42:56;100650.84;;;16.13;62.25
13705;BME280;6924;52.122;9.952;2022-07-29T04:45:22;100650.84;;;16.13;62.05
13705;BME280;6924;52.122;9.952;2022-07-29T04:47:49;100659.91;;;16.15;62.47
13705;BME280;6924;52.122;9.952;2022-07-29T04:50:17;100667.75;;;16.18;62.00
13705;BME280;6924;52.122;9.952;2022-07-29T04:52:43;100665.75;;;16.19;62.16
13705;BME280;6924;52.122;9.952;2022-07-29T04:55:10;100674.81;;;16.21;62.36
13705;BME280;6924;52.122;9.952;2022-07-29T04:57:36;100668.25;;;16.20;62.88
13705;BME280;6924;52.122;9.952;2022-07-29T05:00:04;100672.28;;;16.19;62.61
13705;BME280;6924;52.122;9.952;2022-07-29T05:02:30;100666.09;;;16.17;62.49
13705;BME280;6924;52.122;9.952;2022-07-29T05:04:57;100666.31;;;16.12;62.46
13705;BME280;6924;52.122;9.952;2022-07-29T05:07:25;100666.19;;;16.08;62.67
13705;BME280;6924;52.122;9.952;2022-07-29T05:09:51;100669.84;;;16.09;62.66
13705;BME280;6924;52.122;9.952;2022-07-29T05:12:18;100660.81;;;16.07;62.81
13705;BME280;6924;52.122;9.952;2022-07-29T05:14:44;100662.50;;;16.08;62.15
13705;BME280;6924;52.122;9.952;2022-07-29T05:17:11;100667.38;;;16.07;62.57
13705;BME280;6924;52.122;9.952;2022-07-29T05:19:37;100670.22;;;16.07;62.63
13705;BME280;6924;52.122;9.952;2022-07-29T05:22:03;100664.53;;;16.07;62.58
13705;BME280;6924;52.122;9.952;2022-07-29T05:24:32;100671.88;;;16.08;62.90
13705;BME280;6924;52.122;9.952;2022-07-29T05:26:58;100671.19;;;16.11;62.71
13705;BME280;6924;52.122;9.952;2022-07-29T05:29:25;100671.81;;;16.17;63.94
13705;BME280;6924;52.122;9.952;2022-07-29T05:31:51;100665.75;;;16.19;63.62
13705;BME280;6924;52.122;9.952;2022-07-29T05:34:18;100655.16;;;16.19;63.42
13705;BME280;6924;52.122;9.952;2022-07-29T05:36:45;100656.47;;;16.22;63.97
13705;BME280;6924;52.122;9.952;2022-07-29T05:39:11;100662.34;;;16.25;63.60
13705;BME280;6924;52.122;9.952;2022-07-29T05:41:39;100653.06;;;16.28;63.65
13705;BME280;6924;52.122;9.952;2022-07-29T05:44:06;100651.16;;;16.32;63.73
13705;BME280;6924;52.122;9.952;2022-07-29T05:46:32;100643.81;;;16.31;62.90
13705;BME280;6924;52.122;9.952;2022-07-29T05:48:59;100654.66;;;16.38;62.52
13705;BME280;6924;52.122;9.952;2022-07-29T05:51:25;100652.94;;;16.25;62.14
13705;BME280;6924;52.122;9.952;2022-07-29T05:53:52;100656.75;;;16.29;62.50
13705;BME280;6924;52.122;9.952;2022-07-29T05:56:18;100666.97;;;16.30;62.24
13705;BME280;6924;52.122;9.952;2022-07-29T05:58:46;100660.94;;;16.31;61.96
13705;BME280;6924;52.122;9.952;2022-07-29T06:01:13;100668.94;;;16.38;62.03
13705;BME280;6924;52.122;9.952;2022-07-29T06:03:39;100656.06;;;16.44;62.64
13705;BME280;6924;52.122;9.952;2022-07-29T06:06:06;100656.31;;;16.39;62.18
13705;BME280;6924;52.122;9.952;2022-07-29T06:08:34;100659.50;;;16.38;63.41
13705;BME280;6924;52.122;9.952;2022-07-29T06:11:01;100652.25;;;16.40;62.91
13705;BME280;6924;52.122;9.952;2022-07-29T06:13:28;100648.13;;;16.50;63.46
13705;BME280;6924;52.122;9.952;2022-07-29T06:15:56;100656.59;;;16.59;63.63
13705;BME280;6924;52.122;9.952;2022-07-29T06:18:22;100658.72;;;16.62;63.77
13705;BME280;6924;52.122;9.952;2022-07-29T06:20:49;100658.16;;;16.68;63.17
13705;BME280;6924;52.122;9.952;2022-07-29T06:23:16;100664.25;;;16.79;62.63
13705;BME280;6924;52.122;9.952;2022-07-29T06:25:43;100653.22;;;16.90;62.55
13705;BME280;6924;52.122;9.952;2022-07-29T06:28:09;100661.19;;;16.97;62.00
13705;BME280;6924;52.122;9.952;2022-07-29T06:30:36;100665.94;;;16.92;61.41
13705;BME280;6924;52.122;9.952;2022-07-29T06:33:04;100666.19;;;17.00;61.29
13705;BME280;6924;52.122;9.952;2022-07-29T06:35:33;100671.44;;;17.10;61.29
13705;BME280;6924;52.122;9.952;2022-07-29T06:38:00;100660.38;;;17.21;60.99
13705;BME280;6924;52.122;9.952;2022-07-29T06:40:26;100660.59;;;17.28;61.02
13705;BME280;6924;52.122;9.952;2022-07-29T06:43:11;100651.19;;;17.40;60.88
13705;BME280;6924;52.122;9.952;2022-07-29T06:45:37;100649.03;;;17.49;60.72
13705;BME280;6924;52.122;9.952;2022-07-29T06:48:07;100647.47;;;17.51;60.27
13705;BME280;6924;52.122;9.952;2022-07-29T06:50:33;100646.13;;;17.61;60.57
13705;BME280;6924;52.122;9.952;2022-07-29T06:53:00;100646.72;;;17.67;60.37
13705;BME280;6924;52.122;9.952;2022-07-29T06:55:26;100643.81;;;17.79;61.15
13705;BME280;6924;52.122;9.952;2022-07-29T06:57:53;100647.06;;;17.77;60.22
13705;BME280;6924;52.122;9.952;2022-07-29T07:00:19;100643.16;;;17.82;58.91
13705;BME280;6924;52.122;9.952;2022-07-29T07:02:46;100635.25;;;17.91;59.01
13705;BME280;6924;52.122;9.952;2022-07-29T07:05:14;100642.22;;;18.06;59.72
13705;BME280;6924;52.122;9.952;2022-07-29T07:07:40;100629.88;;;18.18;60.57
13705;BME280;6924;52.122;9.952;2022-07-29T07:10:07;100629.88;;;18.18;60.43
13705;BME280;6924;52.122;9.952;2022-07-29T07:12:34;100631.47;;;18.31;59.95
13705;BME280;6924;52.122;9.952;2022-07-29T07:15:00;100631.78;;;18.42;59.57
13705;BME280;6924;52.122;9.952;2022-07-29T07:17:27;100627.47;;;18.48;57.89
13705;BME280;6924;52.122;9.952;2022-07-29T07:19:53;100635.16;;;18.32;55.53
13705;BME280;6924;52.122;9.952;2022-07-29T07:22:21;100640.06;;;18.31;56.54
13705;BME280;6924;52.122;9.952;2022-07-29T07:24:47;100628.38;;;18.36;55.68
13705;BME280;6924;52.122;9.952;2022-07-29T07:27:14;100636.13;;;18.52;56.40
13705;BME280;6924;52.122;9.952;2022-07-29T07:29:40;100636.81;;;18.61;56.47
13705;BME280;6924;52.122;9.952;2022-07-29T07:32:07;100635.88;;;18.73;55.68
13705;BME280;6924;52.122;9.952;2022-07-29T07:34:33;100636.81;;;18.77;57.99
13705;BME280;6924;52.122;9.952;2022-07-29T07:37:00;100638.41;;;18.74;57.57
13705;BME280;6924;52.122;9.952;2022-07-29T07:39:27;100634.91;;;18.81;55.39
13705;BME280;6924;52.122;9.952;2022-07-29T07:41:54;100643.31;;;18.90;54.86
13705;BME280;6924;52.122;9.952;2022-07-29T07:44:20;100636.75;;;19.05;55.41
13705;BME280;6924;52.122;9.952;2022-07-29T07:46:47;100636.09;;;19.12;53.57
13705;BME280;6924;52.122;9.952;2022-07-29T07:49:13;100632.28;;;19.24;54.02
13705;BME280;6924;52.122;9.952;2022-07-29T07:51:40;100638.19;;;19.31;53.41
13705;BME280;6924;52.122;9.952;2022-07-29T07:54:07;100639.66;;;19.40;52.40
13705;BME280;6924;52.122;9.952;2022-07-29T07:56:35;100638.78;;;19.56;53.12
13705;BME280;6924;52.122;9.952;2022-07-29T07:59:01;100637.00;;;19.67;51.87
13705;BME280;6924;52.122;9.952;2022-07-29T08:01:28;100631.81;;;19.73;51.54
13705;BME280;6924;52.122;9.952;2022-07-29T08:03:54;100637.28;;;19.78;52.04
13705;BME280;6924;52.122;9.952;2022-07-29T08:06:20;100644.56;;;19.75;50.57
13705;BME280;6924;52.122;9.952;2022-07-29T08:08:48;100640.28;;;19.85;51.15
13705;BME280;6924;52.122;9.952;2022-07-29T08:11:15;100639.38;;;19.81;49.42
13705;BME280;6924;52.122;9.952;2022-07-29T08:13:43;100637.34;;;19.81;50.38
13705;BME280;6924;52.122;9.952;2022-07-29T08:16:10;100632.59;;;19.89;52.04
13705;BME280;6924;52.122;9.952;2022-07-29T08:18:41;100640.59;;;19.99;52.62
13705;BME280;6924;52.122;9.952;2022-07-29T08:21:08;100623.13;;;20.08;50.52
13705;BME280;6924;52.122;9.952;2022-07-29T08:23:34;100629.78;;;20.12;50.66
13705;BME280;6924;52.122;9.952;2022-07-29T08:26:04;100630.69;;;20.16;50.53
13705;BME280;6924;52.122;9.952;2022-07-29T08:28:30;100626.63;;;20.17;50.73
13705;BME280;6924;52.122;9.952;2022-07-29T08:30:58;100631.53;;;20.17;50.18
13705;BME280;6924;52.122;9.952;2022-07-29T08:33:24;100629.63;;;20.25;53.05
13705;BME280;6924;52.122;9.952;2022-07-29T08:35:51;100631.44;;;20.33;53.09
13705;BME280;6924;52.122;9.952;2022-07-29T08:38:17;100643.81;;;20.37;50.43
13705;BME280;6924;52.122;9.952;2022-07-29T08:40:44;100636.09;;;20.41;50.46
13705;BME280;6924;52.122;9.952;2022-07-29T08:43:11;100639.44;;;20.43;50.30
13705;BME280;6924;52.122;9.952;2022-07-29T08:45:42;100644.66;;;20.37;49.67
13705;BME280;6924;52.122;9.952;2022-07-29T08:48:11;100641.03;;;20.40;49.14
13705;BME280;6924;52.122;9.952;2022-07-29T08:50:38;100640.25;;;20.43;49.87
13705;BME280;6924;52.122;9.952;2022-07-29T08:53:07;100640.47;;;20.54;49.85
13705;BME280;6924;52.122;9.952;2022-07-29T08:55:34;100638.97;;;20.60;49.66
13705;BME280;6924;52.122;9.952;2022-07-29T08:58:01;100641.69;;;20.73;49.97
13705;BME280;6924;52.122;9.952;2022-07-29T09:00:28;100635.28;;;20.83;50.21
13705;BME280;6924;52.122;9.952;2022-07-29T09:02:57;100639.56;;;20.93;49.08
13705;BME280;6924;52.122;9.952;2022-07-29T09:05:26;100641.34;;;20.78;47.89
13705;BME280;6924;52.122;9.952;2022-07-29T09:07:52;100630.81;;;20.85;46.88
13705;BME280;6924;52.122;9.952;2022-07-29T09:10:19;100631.50;;;21.02;48.66
13705;BME280;6924;52.122;9.952;2022-07-29T09:12:46;100632.72;;;21.01;47.90
13705;BME280;6924;52.122;9.952;2022-07-29T09:15:13;100626.25;;;21.08;47.60
13705;BME280;6924;52.122;9.952;2022-07-29T09:17:41;100626.75;;;21.13;46.63
13705;BME280;6924;52.122;9.952;2022-07-29T09:20:09;100629.00;;;21.00;47.24
13705;BME280;6924;52.122;9.952;2022-07-29T09:22:38;100626.66;;;21.06;46.51
13705;BME280;6924;52.122;9.952;2022-07-29T09:25:05;100621.38;;;21.12;47.18
13705;BME280;6924;52.122;9.952;2022-07-29T09:27:32;100624.22;;;21.08;46.63
13705;BME280;6924;52.122;9.952;2022-07-29T09:30:00;100619.28;;;21.09;47.55
13705;BME280;6924;52.122;9.952;2022-07-29T09:32:27;100625.97;;;21.16;46.18
13705;BME280;6924;52.122;9.952;2022-07-29T09:35:19;100622.97;;;21.32;46.13
13705;BME280;6924;52.122;9.952;2022-07-29T09:37:48;100620.41;;;21.27;45.64
13705;BME280;6924;52.122;9.952;2022-07-29T09:40:16;100607.28;;;21.30;45.60
13705;BME280;6924;52.122;9.952;2022-07-29T09:42:44;100618.34;;;21.51;45.80
13705;BME280;6924;52.122;9.952;2022-07-29T09:45:11;100609.19;;;21.45;45.87
13705;BME280;6924;52.122;9.952;2022-07-29T09:47:42;100605.13;;;21.46;45.49
13705;BME280;6924;52.122;9.952;2022-07-29T09:50:11;100605.56;;;21.48;46.07
13705;BME280;6924;52.122;9.952;2022-07-29T09:52:45;100613.94;;;21.60;46.25
13705;BME280;6924;52.122;9.952;2022-07-29T09:55:14;100597.63;;;21.68;44.88
13705;BME280;6924;52.122;9.952;2022-07-29T09:57:41;100598.09;;;21.74;45.47
13705;BME280;6924;52.122;9.952;2022-07-29T10:00:10;100601.97;;;21.85;45.36
13705;BME280;6924;52.122;9.952;2022-07-29T10:02:39;100595.94;;;21.97;45.34
13705;BME280;6924;52.122;9.952;2022-07-29T10:05:16;100597.38;;;22.14;45.54
13705;BME280;6924;52.122;9.952;2022-07-29T10:07:45;100599.19;;;22.26;45.56
13705;BME280;6924;52.122;9.952;2022-07-29T10:10:20;100587.78;;;22.37;44.68
13705;BME280;6924;52.122;9.952;2022-07-29T10:12:49;100593.22;;;22.45;45.04
13705;BME280;6924;52.122;9.952;2022-07-29T10:15:16;100595.31;;;22.48;45.55
13705;BME280;6924;52.122;9.952;2022-07-29T10:17:43;100593.72;;;22.55;45.31
13705;BME280;6924;52.122;9.952;2022-07-29T10:20:10;100595.84;;;22.58;45.44
13705;BME280;6924;52.122;9.952;2022-07-29T10:22:37;100585.25;;;22.69;45.34
13705;BME280;6924;52.122;9.952;2022-07-29T10:25:04;100594.72;;;22.69;44.71
13705;BME280;6924;52.122;9.952;2022-07-29T10:27:32;100592.16;;;22.61;44.58
13705;BME280;6924;52.122;9.952;2022-07-29T10:29:58;100593.38;;;22.60;45.20
13705;BME280;6924;52.122;9.952;2022-07-29T10:32:35;100594.75;;;22.73;44.70
13705;BME280;6924;52.122;9.952;2022-07-29T10:35:21;100595.84;;;22.61;44.22
13705;BME280;6924;52.122;9.952;2022-07-29T10:38:07;100594.09;;;22.49;43.35
13705;BME280;6924;52.122;9.952;2022-07-29T10:40:45;100588.88;;;22.62;45.44
13705;BME280;6924;52.122;9.952;2022-07-29T10:43:37;100589.00;;;22.73;44.67
13705;BME280;6924;52.122;9.952;2022-07-29T10:46:08;100587.78;;;22.78;43.93
13705;BME280;6924;52.122;9.952;2022-07-29T10:48:34;100581.69;;;22.86;44.42
13705;BME280;6924;52.122;9.952;2022-07-29T10:51:03;100583.34;;;22.87;43.65
13705;BME280;6924;52.122;9.952;2022-07-29T10:53:49;100584.59;;;22.90;44.15
13705;BME280;6924;52.122;9.952;2022-07-29T10:56:26;100584.91;;;22.81;43.33
13705;BME280;6924;52.122;9.952;2022-07-29T10:59:25;100572.09;;;22.75;43.62
13705;BME280;6924;52.122;9.952;2022-07-29T11:01:53;100580.34;;;22.77;43.40
13705;BME280;6924;52.122;9.952;2022-07-29T11:04:59;100585.28;;;22.76;44.20
13705;BME280;6924;52.122;9.952;2022-07-29T11:07:26;100579.97;;;22.78;44.15
13705;BME280;6924;52.122;9.952;2022-07-29T11:10:20;100583.94;;;22.63;43.74
13705;BME280;6924;52.122;9.952;2022-07-29T11:12:47;100584.03;;;22.74;44.24
13705;BME280;6924;52.122;9.952;2022-07-29T11:15:16;100584.47;;;22.76;44.06
13705;BME280;6924;52.122;9.952;2022-07-29T11:18:07;100587.59;;;22.60;43.79
13705;BME280;6924;52.122;9.952;2022-07-29T11:20:36;100574.47;;;22.62;44.34
13705;BME280;6924;52.122;9.952;2022-07-29T11:23:18;100583.13;;;22.62;44.56
13705;BME280;6924;52.122;9.952;2022-07-29T11:25:44;100579.09;;;22.74;45.33
13705;BME280;6924;52.122;9.952;2022-07-29T11:28:15;100581.16;;;22.77;45.29
13705;BME280;6924;52.122;9.952;2022-07-29T11:30:51;100578.72;;;22.76;45.38
13705;BME280;6924;52.122;9.952;2022-07-29T11:33:28;100577.91;;;22.79;45.88
13705;BME280;6924;52.122;9.952;2022-07-29T11:36:09;100575.28;;;22.63;45.04
13705;BME280;6924;52.122;9.952;2022-07-29T11:38:36;100579.44;;;22.65;45.61
13705;BME280;6924;52.122;9.952;2022-07-29T11:41:24;100571.69;;;22.73;45.87
13705;BME280;6924;52.122;9.952;2022-07-29T11:43:52;100579.97;;;22.82;46.39
13705;BME280;6924;52.122;9.952;2022-07-29T11:46:46;100578.22;;;22.66;45.39
13705;BME280;6924;52.122;9.952;2022-07-29T11:49:19;100572.03;;;22.64;46.38
13705;BME280;6924;52.122;9.952;2022-07-29T11:51:50;100573.34;;;22.74;46.19
13705;BME280;6924;52.122;9.952;2022-07-29T11:54:23;100570.44;;;22.74;45.85
13705;BME280;6924;52.122;9.952;2022-07-29T11:56:51;100574.63;;;22.80;46.70
13705;BME280;6924;52.122;9.952;2022-07-29T11:59:19;100575.06;;;22.82;46.11
13705;BME280;6924;52.122;9.952;2022-07-29T12:01:54;100574.72;;;22.95;46.27
13705;BME280;6924;52.122;9.952;2022-07-29T12:04:20;100566.94;;;22.99;45.60
13705;BME280;6924;52.122;9.952;2022-07-29T12:06:49;100569.81;;;22.99;45.39
13705;BME280;6924;52.122;9.952;2022-07-29T12:09:15;100556.72;;;23.05;45.42
13705;BME280;6924;52.122;9.952;2022-07-29T12:11:43;100557.59;;;23.13;45.60
13705;BME280;6924;52.122;9.952;2022-07-29T12:14:24;100558.78;;;23.08;45.76
13705;BME280;6924;52.122;9.952;2022-07-29T12:16:50;100557.16;;;23.10;44.80
13705;BME280;6924;52.122;9.952;2022-07-29T12:19:18;100552.97;;;23.01;45.35
13705;BME280;6924;52.122;9.952;2022-07-29T12:21:45;100551.78;;;23.05;45.14
13705;BME280;6924;52.122;9.952;2022-07-29T12:24:12;100553.09;;;23.15;44.50
13705;BME280;6924;52.122;9.952;2022-07-29T12:26:49;100553.53;;;23.17;44.58
13705;BME280;6924;52.122;9.952;2022-07-29T12:29:16;100551.91;;;23.23;45.81
13705;BME280;6924;52.122;9.952;2022-07-29T12:31:43;100551.19;;;23.37;46.38
13705;BME280;6924;52.122;9.952;2022-07-29T12:34:10;100552.00;;;23.41;44.89
13705;BME280;6924;52.122;9.952;2022-07-29T12:36:38;100556.16;;;23.44;44.45
13705;BME280;6924;52.122;9.952;2022-07-29T12:39:05;100554.88;;;23.41;43.51
13705;BME280;6924;52.122;9.952;2022-07-29T12:41:32;100554.88;;;23.41;44.89
13705;BME280;6924;52.122;9.952;2022-07-29T12:43:58;100557.06;;;23.55;45.22
13705;BME280;6924;52.122;9.952;2022-07-29T12:46:25;100558.72;;;23.60;45.30
13705;BME280;6924;52.122;9.952;2022-07-29T12:48:53;100552.56;;;23.72;44.55
13705;BME280;6924;52.122;9.952;2022-07-29T12:51:28;100552.69;;;23.86;44.77
13705;BME280;6924;52.122;9.952;2022-07-29T12:54:06;100548.09;;;23.78;42.77
13705;BME280;6924;52.122;9.952;2022-07-29T12:56:33;100541.56;;;23.88;43.74
13705;BME280;6924;52.122;9.952;2022-07-29T12:59:00;100534.56;;;23.97;43.79
13705;BME280;6924;52.122;9.952;2022-07-29T13:01:36;100533.75;;;24.00;42.10
13705;BME280;6924;52.122;9.952;2022-07-29T13:04:03;100535.41;;;24.04;43.28
13705;BME280;6924;52.122;9.952;2022-07-29T13:06:31;100540.38;;;24.04;42.75
13705;BME280;6924;52.122;9.952;2022-07-29T13:08:59;100537.47;;;24.07;42.81
13705;BME280;6924;52.122;9.952;2022-07-29T13:11:32;100534.22;;;24.20;43.09